Latest Weather Observations for Bairnsdale

IDV60801

Issued at 5:05 pm EDT Friday 31 October 2014 (issued every 30 minutes, with the page automatically refreshed every 10 minutes)

About weather observations | Map of weather stations | Latest weather observations for VIC | Other Formats
Station Details ID: 085279 Name: BAIRNSDALE AIRPORT Lat: -37.88 Lon: 147.57 Height: 49.4 m
Data from the previous 72 hours. | See also: Recent months at Bairnsdale
Date/Time
EDT
Temp
°C
App
Temp
°C
Dew
Point
Rel
Hum
%
Delta-T
°C
Wind Press
QNH
hPa
Press
MSL
hPa
Rain
since 9 am
mm
Dir
 
Spd
km/h
Gust
km/h
Spd
kts
Gust
kts
31/05:00pm 24.2 21.5 9.0 38 8.3 ESE 13 17 7 9 1002.5 1002.5 0.0
31/04:30pm 24.2 20.9 9.4 39 8.1 ESE 17 24 9 13 1002.6 1002.6 0.0
31/04:00pm 24.5 21.5 9.3 38 8.3 ESE 15 20 8 11 1003.0 1003.0 0.0
31/03:30pm 25.0 22.0 10.5 40 8.1 SE 17 20 9 11 1003.6 1003.6 0.0
31/03:00pm 25.9 22.7 10.1 37 8.8 ESE 17 22 9 12 1004.1 1004.1 0.0
31/02:30pm 25.3 22.2 7.4 32 9.5 ESE 13 17 7 9 1004.6 1004.6 0.0
31/02:00pm 24.1 22.6 13.0 50 6.4 ESE 13 17 7 9 1005.2 1005.2 0.0
31/01:30pm 24.4 22.6 13.3 50 6.5 ENE 15 19 8 10 1005.8 1005.8 0.0
31/01:00pm 23.6 21.8 11.0 45 7.1 ENE 11 17 6 9 1006.3 1006.3 0.0
31/12:30pm 23.4 22.2 11.5 47 6.7 E 9 13 5 7 1007.1 1007.1 0.0
31/12:00pm 21.6 20.5 11.9 54 5.5 E 9 11 5 6 1007.8 1007.8 0.0
31/11:30am 20.7 19.6 11.9 57 4.9 E 9 13 5 7 1008.3 1008.3 0.0
31/11:00am 19.9 18.6 12.4 62 4.2 ENE 11 15 6 8 1008.9 1008.8 0.0
31/10:30am 19.2 17.8 12.2 64 3.9 ENE 11 15 6 8 1009.4 1009.3 0.0
31/10:00am 18.1 16.5 11.7 66 3.5 ENE 11 13 6 7 1010.0 1009.9 0.0
31/09:30am 16.3 14.9 11.0 71 2.8 NE 9 13 5 7 1010.4 1010.3 0.0
31/09:00am 15.7 14.6 11.9 78 2.1 NNE 9 11 5 6 1010.8 1010.7 0.0
31/08:30am 14.3 13.7 12.2 87 1.1 NNW 7 11 4 6 1011.1 1011.0 0.0
31/08:00am 11.8 10.5 11.2 96 0.3 NW 9 11 5 6 1011.2 1011.1 0.0
31/07:30am 10.6 9.4 10.3 98 0.2 NNW 7 9 4 5 1011.2 1011.1 0.0
31/07:00am 9.2 8.9 8.7 97 0.2 CALM 0 0 0 0 1011.4 1011.3 0.0
31/06:30am 7.6 6.1 6.7 94 0.4 W 4 6 2 3 1011.5 1011.5 0.0
31/06:00am 8.7 7.0 7.6 93 0.5 N 6 7 3 4 1011.1 1011.0 0.0
31/05:51am 8.9 7.2 7.7 92 0.6 N 6 7 3 4 1011.1 1011.0 0.0
31/05:30am 9.2 7.5 7.5 89 0.8 NNE 6 6 3 3 1011.2 1011.1 0.0
31/05:00am 10.6 8.6 8.5 87 1.0 NE 9 11 5 6 1011.1 1011.0 0.0
31/04:30am 11.2 8.8 8.8 85 1.2 ENE 11 15 6 8 1011.0 1010.9 0.0
31/04:00am 11.7 9.0 8.9 83 1.4 ENE 13 15 7 8 1011.4 1011.3 0.0
31/03:30am 12.3 10.0 9.1 81 1.6 ENE 11 15 6 8 1011.7 1011.7 0.0
31/03:00am 12.7 10.5 9.2 79 1.8 ENE 11 13 6 7 1012.2 1012.2 0.0
31/02:30am 12.9 10.7 9.4 79 1.8 ENE 11 13 6 7 1012.3 1012.3 0.0
31/02:00am 13.2 11.8 9.6 79 1.8 E 7 9 4 5 1012.8 1012.8 0.0
31/01:30am 13.6 11.5 9.6 77 2.1 ENE 11 15 6 8 1013.2 1013.2 0.0
31/01:00am 13.6 11.5 9.8 78 2.0 E 11 13 6 7 1013.5 1013.5 0.0
31/12:30am 13.5 12.1 9.7 78 2.0 ENE 7 11 4 6 1013.9 1013.9 0.0
31/12:00am 13.5 11.8 9.9 79 1.9 ENE 9 19 5 10 1013.8 1013.8 0.0
 
Date/Time
EDT
Temp
°C
App
Temp
°C
Dew
Point
Rel
Hum
%
Delta-T
°C
Wind Press
QNH
hPa
Press
MSL
hPa
Rain
since 9 am
mm
Dir
 
Spd
km/h
Gust
km/h
Spd
kts
Gust
kts
30/11:30pm 13.5 11.8 9.9 79 1.9 NE 9 11 5 6 1014.1 1014.1 0.0
30/11:00pm 13.6 11.9 10.0 79 1.9 ENE 9 13 5 7 1014.2 1014.2 0.0
30/10:30pm 13.2 11.1 9.6 79 1.8 ENE 11 13 6 7 1014.4 1014.4 0.0
30/10:00pm 13.1 11.0 9.7 80 1.7 ENE 11 15 6 8 1014.6 1014.6 0.0
30/09:30pm 12.7 10.1 9.5 81 1.6 ENE 13 17 7 9 1014.6 1014.6 0.0
30/09:00pm 12.3 10.3 8.8 79 1.7 E 9 11 5 6 1014.7 1014.7 0.0
30/08:30pm 13.0 11.2 9.3 78 1.9 E 9 13 5 7 1014.5 1014.5 0.0
30/08:00pm 13.2 11.0 9.3 77 2.0 E 11 13 6 7 1014.4 1014.4 0.0
30/07:30pm 14.4 12.3 9.6 73 2.5 E 11 13 6 7 1014.2 1014.2 0.0
30/07:00pm 14.9 12.7 9.5 70 2.8 ESE 11 13 6 7 1014.0 1014.0 0.0
30/06:30pm 15.3 12.8 9.7 69 2.9 ESE 13 19 7 10 1013.9 1013.9 0.0
30/06:00pm 15.7 12.5 9.8 68 3.1 SE 17 22 9 12 1013.6 1013.6 0.0
30/05:30pm 16.0 12.8 9.9 67 3.2 SE 17 24 9 13 1013.4 1013.4 0.0
30/05:00pm 17.1 13.1 10.5 65 3.5 SE 22 30 12 16 1012.8 1012.8 0.0
30/04:30pm 17.9 14.5 10.5 62 4.0 SSE 19 26 10 14 1012.5 1012.5 0.0
30/04:00pm 17.9 14.3 10.5 62 4.0 SE 20 26 11 14 1012.4 1012.4 0.0
30/03:30pm 18.3 14.7 10.7 61 4.1 SE 20 30 11 16 1012.2 1012.2 0.0
30/03:00pm 19.0 15.6 11.1 60 4.3 SSE 20 28 11 15 1012.2 1012.2 0.0
30/02:30pm 18.9 15.1 11.2 61 4.2 SSE 22 30 12 16 1012.4 1012.4 0.0
30/02:00pm 18.9 14.1 10.2 57 4.7 SE 26 35 14 19 1012.6 1012.6 0.0
30/01:30pm 21.0 18.6 12.7 59 4.7 SSW 17 28 9 15 1012.5 1012.5 0.0
30/01:00pm 20.6 18.2 12.8 61 4.4 SW 17 24 9 13 1012.6 1012.6 0.0
30/12:30pm 19.4 16.3 11.7 61 4.3 SSW 19 30 10 16 1013.1 1013.1 0.0
30/12:00pm 18.8 15.5 10.9 60 4.3 SSW 19 28 10 15 1013.4 1013.4 0.0
30/11:30am 17.9 15.1 11.5 66 3.5 SW 17 22 9 12 1013.8 1013.8 0.0
30/11:00am 17.9 15.4 11.0 64 3.7 SW 15 20 8 11 1014.2 1014.2 0.0
30/10:30am 18.2 16.8 11.0 63 3.9 WNW 9 15 5 8 1014.2 1014.2 0.0
30/10:00am 17.5 15.7 10.9 65 3.6 W 11 19 6 10 1014.3 1014.3 0.0
30/09:30am 16.8 15.1 11.1 69 3.1 WSW 11 17 6 9 1014.6 1014.6 0.0
30/09:00am 15.1 13.6 10.5 74 2.4 WSW 9 15 5 8 1014.9 1014.9 0.0
30/08:30am 13.0 11.7 11.2 89 1.0 W 9 15 5 8 1015.0 1015.0 0.0
30/08:00am 11.3 9.0 10.4 94 0.5 WNW 13 17 7 9 1014.7 1014.7 0.0
30/07:30am 10.5 8.1 9.9 96 0.3 NW 13 17 7 9 1014.4 1014.4 0.0
30/07:00am 9.5 7.2 9.0 97 0.2 NW 11 15 6 8 1014.4 1014.4 0.0
30/06:30am 8.9 6.1 8.5 97 0.2 WNW 13 17 7 9 1014.4 1014.4 0.0
30/06:00am 8.6 5.7 8.3 98 0.1 WNW 13 17 7 9 1014.3 1014.3 0.0
30/05:30am 8.1 5.5 7.7 97 0.2 NW 11 13 6 7 1014.0 1014.0 0.0
30/05:00am 8.0 5.0 7.6 97 0.2 WNW 13 15 7 8 1014.1 1014.1 0.0
30/04:30am 8.4 5.8 7.8 96 0.3 NNW 11 11 6 6 1014.0 1014.0 0.0
30/04:00am 8.8 6.3 8.0 95 0.4 NNW 11 13 6 7 1014.1 1014.1 0.0
30/03:30am 9.6 7.2 8.8 95 0.4 N 11 13 6 7 1014.3 1014.3 0.0
30/03:00am 9.6 7.6 8.8 95 0.4 NW 9 11 5 6 1014.6 1014.6 0.0
30/02:30am 9.9 8.1 9.3 96 0.3 NNW 9 11 5 6 1014.9 1014.9 0.0
30/02:00am 9.6 9.4 9.1 97 0.2 CALM 0 0 0 0 1015.1 1015.1 0.0
30/01:30am 7.4 6.6 6.3 93 0.5 CALM 0 0 0 0 1015.2 1015.2 0.0
30/01:00am 7.7 6.8 6.2 90 0.7 CALM 0 0 0 0 1015.5 1015.5 0.0
30/12:30am 9.2 8.2 7.2 87 0.9 ENE 2 6 1 3 1015.8 1015.8 0.0
30/12:00am 10.5 8.4 8.4 87 1.0 NE 9 11 5 6 1015.9 1015.9 0.0
 
Date/Time
EDT
Temp
°C
App
Temp
°C
Dew
Point
Rel
Hum
%
Delta-T
°C
Wind Press
QNH
hPa
Press
MSL
hPa
Rain
since 9 am
mm
Dir
 
Spd
km/h
Gust
km/h
Spd
kts
Gust
kts
29/11:30pm 10.7 8.7 8.5 86 1.1 NE 9 9 5 5 1016.2 1016.2 0.0
29/11:00pm 11.1 9.1 8.7 85 1.2 NNE 9 11 5 6 1016.3 1016.3 0.0
29/10:30pm 11.0 9.0 8.6 85 1.2 NE 9 9 5 5 1016.5 1016.5 0.0
29/10:00pm 11.1 9.1 8.8 86 1.1 NE 9 11 5 6 1016.5 1016.5 0.0
29/09:30pm 11.3 9.4 9.0 86 1.1 NE 9 13 5 7 1016.5 1016.5 0.0
29/09:00pm 11.5 9.6 9.1 85 1.2 NE 9 13 5 7 1016.5 1016.5 0.0
29/08:30pm 12.6 10.5 9.6 82 1.5 ENE 11 15 6 8 1016.3 1016.3 0.0
29/08:00pm 12.8 11.0 9.3 79 1.8 E 9 11 5 6 1016.2 1016.2 0.0
29/07:30pm 13.8 12.0 9.6 76 2.2 ESE 9 13 5 7 1015.7 1015.7 0.0
29/07:00pm 15.2 12.7 9.8 70 2.8 SE 13 17 7 9 1015.4 1015.4 0.0
29/06:30pm 15.6 12.3 9.7 68 3.1 SE 17 20 9 11 1015.0 1015.0 0.0
29/06:00pm 16.3 12.5 9.7 65 3.4 SE 20 26 11 14 1014.8 1014.8 0.0
29/05:30pm 16.7 13.0 9.4 62 3.8 ESE 19 26 10 14 1014.6 1014.6 0.0
29/05:00pm 17.6 14.0 10.0 61 4.0 SSE 19 26 10 14 1014.3 1014.3 0.0
29/04:30pm 18.4 14.5 9.5 56 4.7 SE 20 28 11 15 1014.0 1014.0 0.0
29/04:00pm 18.5 14.6 9.6 56 4.7 SE 20 28 11 15 1014.1 1014.1 0.0
29/03:30pm 20.0 16.3 9.6 51 5.6 S 19 28 10 15 1014.2 1014.2 0.0
29/03:00pm 19.5 15.7 9.1 51 5.5 SSW 19 26 10 14 1014.5 1014.5 0.0
29/02:30pm 19.2 15.4 9.1 52 5.3 SSW 19 26 10 14 1015.0 1015.0 0.0
29/02:00pm 19.5 17.2 9.1 51 5.5 S 11 19 6 10 1015.3 1015.3 0.0
29/01:30pm 19.2 17.3 7.6 47 5.9 SSW 7 13 4 7 1015.7 1015.7 0.0
29/01:00pm 18.8 16.0 6.9 46 6.0 WNW 11 19 6 10 1015.9 1015.9 0.0
29/12:30pm 18.1 15.2 6.6 47 5.7 WNW 11 17 6 9 1016.4 1016.4 0.0
29/12:00pm 18.0 15.0 7.7 51 5.2 W 13 20 7 11 1016.9 1016.9 0.0
29/11:30am 16.9 14.3 6.1 49 5.3 SW 9 19 5 10 1017.3 1017.3 0.0
29/11:00am 16.5 12.0 6.9 53 4.7 W 20 28 11 15 1017.7 1017.7 0.0
29/10:30am 15.8 12.1 7.8 59 4.0 W 17 24 9 13 1018.1 1018.1 0.0
29/10:00am 15.1 10.2 6.7 57 4.1 WSW 22 32 12 17 1018.0 1018.0 0.0
29/09:30am 14.9 9.9 6.5 57 4.1 W 22 32 12 17 1018.0 1018.0 0.0
29/09:00am 14.5 10.9 6.8 60 3.7 WNW 15 20 8 11 1018.0 1018.0 0.2
29/08:30am 13.2 10.3 6.3 63 3.3 W 11 15 6 8 1017.9 1017.9 0.2
29/08:00am 12.3 9.8 6.6 68 2.7 WNW 9 11 5 6 1017.9 1017.9 0.2
29/07:30am 11.3 8.5 6.8 74 2.1 NNW 11 15 6 8 1017.6 1017.6 0.2
29/07:00am 10.8 7.8 6.2 73 2.1 WNW 11 15 6 8 1017.3 1017.3 0.2
29/06:30am 10.9 7.8 5.7 70 2.4 WNW 11 15 6 8 1017.1 1017.1 0.2
29/06:00am 11.0 7.1 5.3 68 2.6 WSW 15 22 8 12 1016.9 1016.9 0.2
29/05:30am 11.3 6.6 5.2 66 2.8 WSW 19 28 10 15 1016.9 1016.9 0.2
29/05:00am 10.9 6.5 4.8 66 2.8 WSW 17 24 9 13 1016.5 1016.5 0.2
29/04:30am 11.0 6.5 4.2 63 3.0 WSW 17 24 9 13 1016.1 1016.1 0.2
29/04:00am 11.9 6.8 3.9 58 3.6 W 20 30 11 16 1016.0 1016.0 0.2
29/03:30am 11.2 6.3 4.0 61 3.2 W 19 24 10 13 1015.8 1015.8 0.2
29/03:00am 10.8 5.0 4.5 65 2.8 WSW 24 33 13 18 1015.7 1015.7 0.2
29/02:30am 10.8 5.3 5.8 71 2.3 WSW 24 39 13 21 1015.5 1015.5 0.2
29/02:00am 10.9 5.1 6.3 73 2.2 WSW 26 37 14 20 1015.4 1015.4 0.2
29/01:30am 10.9 4.4 6.3 73 2.2 WSW 30 41 16 22 1015.4 1015.4 0.2
29/01:00am 11.3 4.8 6.6 73 2.2 WSW 30 44 16 24 1015.5 1015.5 0.2
29/12:30am 11.6 5.5 6.7 72 2.3 WSW 28 37 15 20 1015.3 1015.3 0.2
29/12:00am 11.3 6.3 6.6 73 2.2 WSW 22 32 12 17 1015.3 1015.3 0.2
 
Date/Time
EDT
Temp
°C
App
Temp
°C
Dew
Point
Rel
Hum
%
Delta-T
°C
Wind Press
QNH
hPa
Press
MSL
hPa
Rain
since 9 am
mm
Dir
 
Spd
km/h
Gust
km/h
Spd
kts
Gust
kts
28/11:30pm 11.2 6.6 6.5 73 2.2 WSW 20 28 11 15 1014.7 1014.7 0.2
28/11:00pm 11.5 5.3 6.2 70 2.5 WSW 28 35 15 19 1014.5 1014.5 0.2
28/10:30pm 11.6 6.1 6.1 69 2.6 WSW 24 33 13 18 1014.4 1014.4 0.2
28/10:00pm 12.1 5.5 6.2 67 2.8 WSW 30 41 16 22 1014.2 1014.2 0.2
28/09:30pm 12.2 5.7 6.5 68 2.7 WSW 30 43 16 23 1014.0 1014.0 0.2
28/09:00pm 12.5 6.5 7.0 69 2.7 WSW 28 43 15 23 1013.6 1013.6 0.2
28/08:30pm 13.0 7.0 7.2 68 2.8 WSW 28 37 15 20 1013.1 1013.1 0.2
28/08:00pm 13.4 7.1 7.4 67 2.9 WSW 30 43 16 23 1012.5 1012.5 0.2
28/07:30pm 14.3 7.0 7.4 63 3.4 WSW 35 54 19 29 1011.7 1011.7 0.2
28/07:22pm 14.6 7.9 7.2 61 3.6 WSW 32 50 17 27 1011.4 1011.3 0.2
28/07:00pm 15.5 8.6 7.3 58 4.1 WSW 33 46 18 25 1011.0 1010.9 0.2
28/06:30pm 17.1 9.6 6.3 49 5.3 W 35 54 19 29 1010.5 1010.4 0.2
28/06:01pm 17.7 9.6 6.9 49 5.4 WSW 39 57 21 31 1010.2 1010.1 0.2
28/06:00pm 17.7 9.1 6.6 48 5.5 WSW 41 57 22 31 1010.1 1010.0 0.2
28/05:30pm 18.7 11.8 7.2 47 5.8 WSW 33 52 18 28 1009.4 1009.3 0.2
28/05:25pm 18.9 11.9 7.0 46 6.0 W 33 52 18 28 1009.3 1009.2 0.2

Other Formats:

Comma delimited format used in spreadsheet applications
http://www.bom.gov.au/fwo/IDV60801/IDV60801.94912.axf

JavaScript Object Notation format (JSON) in row-major order
http://www.bom.gov.au/fwo/IDV60801/IDV60801.94912.json